createdAt,value
2023-03-16T00:00:33.834Z,6.95
2023-03-16T00:05:36.570Z,8.66
2023-03-16T00:10:39.150Z,8.61
2023-03-16T00:15:42.334Z,6.97
2023-03-16T00:20:44.784Z,5.91
2023-03-16T00:25:47.392Z,5.77
2023-03-16T00:30:50.205Z,5.70
2023-03-16T00:36:02.234Z,5.24
2023-03-16T00:41:07.058Z,5.42
2023-03-16T00:46:14.793Z,4.97
2023-03-16T00:51:19.416Z,5.21
2023-03-16T00:56:22.180Z,5.38
2023-03-16T01:01:25.254Z,5.53
2023-03-16T01:06:28.032Z,5.85
2023-03-16T01:11:30.443Z,5.03
2023-03-16T01:16:33.910Z,4.76
2023-03-16T01:21:38.312Z,4.92
2023-03-16T01:26:40.718Z,4.61
2023-03-16T01:31:43.228Z,4.66
2023-03-16T01:36:48.888Z,4.58
2023-03-16T01:41:59.342Z,4.66
2023-03-16T01:47:01.817Z,4.54
2023-03-16T01:52:14.750Z,4.76
2023-03-16T01:57:30.475Z,4.71
2023-03-16T02:02:33.263Z,4.52
2023-03-16T02:07:45.031Z,4.57
2023-03-16T02:12:48.259Z,4.12
2023-03-16T02:17:51.670Z,3.76
2023-03-16T02:22:56.142Z,3.22
2023-03-16T02:28:15.412Z,2.81
2023-03-16T02:33:21.469Z,2.32
2023-03-16T02:38:26.150Z,2.45
2023-03-16T02:43:35.240Z,2.38
2023-03-16T02:48:49.926Z,2.66
2023-03-16T02:53:52.573Z,2.41
2023-03-16T02:58:57.942Z,2.08
2023-03-16T03:04:02.658Z,2.22
2023-03-16T03:09:08.328Z,2.16
2023-03-16T03:14:10.835Z,1.94
2023-03-16T03:19:15.591Z,2.27
2023-03-16T03:24:18.838Z,2.73
2023-03-16T03:29:22.715Z,3.07
2023-03-16T03:34:26.684Z,2.70
2023-03-16T03:39:29.459Z,2.63
2023-03-16T03:44:34.690Z,2.90
2023-03-16T03:49:37.494Z,2.74
2023-03-16T03:54:40.173Z,2.51
2023-03-16T03:59:48.873Z,2.57
2023-03-16T04:05:10.073Z,2.60
2023-03-16T04:10:12.855Z,2.10
2023-03-16T04:15:18.200Z,1.94
2023-03-16T04:20:43.437Z,1.93
2023-03-16T04:25:50.562Z,2.38
2023-03-16T04:30:55.429Z,3.12
2023-03-16T04:36:09.144Z,4.51
2023-03-16T04:41:13.750Z,4.29
2023-03-16T04:46:27.117Z,4.24
2023-03-16T04:51:30.419Z,4.20
2023-03-16T04:56:53.199Z,4.72
2023-03-16T05:02:05.931Z,5.97
2023-03-16T05:07:08.985Z,6.42
2023-03-16T05:12:14.992Z,7.02
2023-03-16T05:17:20.270Z,7.50
2023-03-16T05:22:23.679Z,7.69
2023-03-16T05:27:48.506Z,8.02
2023-03-16T05:33:00.183Z,8.27
2023-03-16T05:38:04.873Z,8.41
2023-03-16T05:43:10.502Z,8.44
2023-03-16T05:48:19.118Z,8.69
2023-03-16T05:53:28.792Z,8.84
2023-03-16T05:58:35.854Z,8.89
2023-03-16T06:03:42.439Z,9.02
2023-03-16T06:08:49.250Z,8.90
2023-03-16T06:13:53.615Z,9.13
2023-03-16T06:18:59.574Z,9.17
2023-03-16T06:24:03.658Z,9.27
2023-03-16T06:29:06.812Z,9.16
2023-03-16T06:34:11.703Z,9.17
2023-03-16T06:39:15.023Z,9.12
2023-03-16T06:44:22.234Z,9.05
2023-03-16T06:49:37.906Z,9.41
2023-03-16T06:54:48.874Z,9.31
2023-03-16T06:59:54.337Z,9.01
2023-03-16T07:04:56.975Z,8.46
2023-03-16T07:10:00.205Z,8.69
2023-03-16T07:15:03.570Z,9.22
2023-03-16T07:20:10.571Z,9.79
2023-03-16T07:25:14.054Z,10.25
2023-03-16T07:30:22.114Z,10.36
2023-03-16T07:35:26.824Z,10.32
2023-03-16T07:40:31.094Z,10.46
2023-03-16T07:45:41.766Z,11.17
2023-03-16T07:50:47.171Z,11.72
2023-03-16T07:55:50.434Z,11.89
2023-03-16T08:00:58.985Z,11.37
2023-03-16T08:06:01.678Z,10.13
2023-03-16T08:11:04.364Z,10.29
2023-03-16T08:16:29.792Z,10.75
2023-03-16T08:21:36.531Z,13.25
2023-03-16T08:26:45.072Z,14.49
2023-03-16T08:31:48.019Z,13.93
2023-03-16T08:37:01.262Z,14.47
2023-03-16T08:42:04.890Z,15.44
2023-03-16T08:47:17.051Z,16.91
2023-03-16T08:52:21.057Z,17.23
2023-03-16T08:57:27.372Z,17.84
2023-03-16T09:02:29.865Z,17.56
2023-03-16T09:07:35.698Z,18.26
2023-03-16T09:12:39.214Z,17.61
2023-03-16T09:17:43.136Z,18.71
2023-03-16T09:22:45.896Z,17.31
2023-03-16T09:27:48.471Z,14.91
2023-03-16T09:32:50.973Z,13.46
2023-03-16T09:38:05.663Z,12.35
2023-03-16T09:43:19.031Z,12.76
2023-03-16T09:48:22.363Z,14.37
2023-03-16T09:53:33.521Z,13.14
2023-03-16T09:58:36.973Z,12.15
2023-03-16T10:03:57.292Z,12.65
2023-03-16T10:09:13.603Z,13.13
2023-03-16T10:14:21.485Z,13.39
2023-03-16T10:19:42.349Z,13.90
2023-03-16T10:25:09.189Z,14.39
2023-03-16T10:30:28.675Z,15.04
2023-03-16T10:36:03.950Z,14.97
2023-03-16T10:41:19.177Z,15.97
2023-03-16T10:46:22.492Z,17.12
2023-03-16T10:51:29.485Z,18.50
2023-03-16T10:56:37.518Z,19.29
2023-03-16T11:01:40.153Z,21.09
2023-03-16T11:06:53.869Z,19.26
2023-03-16T11:11:56.676Z,18.70
2023-03-16T11:17:17.774Z,21.93
2023-03-16T11:22:27.516Z,21.48
2023-03-16T11:27:56.883Z,23.37
2023-03-16T11:33:00.723Z,23.28
2023-03-16T11:38:03.195Z,22.94
2023-03-16T11:43:27.376Z,23.88
2023-03-16T11:48:57.300Z,25.42
2023-03-16T11:54:17.539Z,24.86
2023-03-16T11:59:46.245Z,21.17
2023-03-16T12:05:23.645Z,20.65
2023-03-16T12:10:36.452Z,21.37
2023-03-16T12:15:45.119Z,22.21
2023-03-16T12:20:57.196Z,22.33
2023-03-16T12:26:00.922Z,21.03
2023-03-16T12:31:19.049Z,20.97
2023-03-16T12:36:40.205Z,19.48
2023-03-16T12:42:24.911Z,17.96
2023-03-16T12:47:55.786Z,19.12
2023-03-16T12:52:58.481Z,18.07
2023-03-16T12:58:08.687Z,19.60
2023-03-16T13:03:21.549Z,18.85
2023-03-16T13:08:24.590Z,19.09
2023-03-16T13:13:28.541Z,20.23
2023-03-16T13:18:45.115Z,21.25
2023-03-16T13:23:47.524Z,22.59
2023-03-16T13:28:55.328Z,20.09
2023-03-16T13:34:00.394Z,18.27
2023-03-16T13:39:13.494Z,17.68
2023-03-16T13:44:18.913Z,18.56
2023-03-16T13:49:21.659Z,19.22
2023-03-16T13:54:30.014Z,18.41
2023-03-16T13:59:32.764Z,19.91
2023-03-16T14:04:35.303Z,23.80
2023-03-16T14:09:40.750Z,25.56
2023-03-16T14:14:46.730Z,26.24
2023-03-16T14:19:50.751Z,23.24
2023-03-16T14:25:00.772Z,22.65
2023-03-16T14:30:26.128Z,22.03
2023-03-16T14:35:43.195Z,20.31
2023-03-16T14:40:54.303Z,18.86
2023-03-16T14:45:57.565Z,19.07
2023-03-16T14:51:02.998Z,17.89
2023-03-16T14:56:13.684Z,16.43
2023-03-16T15:01:20.442Z,15.89
2023-03-16T15:06:23.087Z,15.48
2023-03-16T15:11:26.450Z,14.74
2023-03-16T15:16:29.531Z,15.09
2023-03-16T15:21:32.238Z,14.63
2023-03-16T15:26:34.732Z,15.27
2023-03-16T15:31:38.890Z,15.36
2023-03-16T15:36:41.534Z,15.82
2023-03-16T15:41:47.832Z,16.08
2023-03-16T15:46:50.663Z,15.47
2023-03-16T15:51:53.179Z,15.28
2023-03-16T15:56:56.352Z,14.99
2023-03-16T16:01:59.068Z,15.14
2023-03-16T16:07:03.021Z,15.00
2023-03-16T16:12:06.225Z,15.07
2023-03-16T16:17:15.803Z,15.14
2023-03-16T16:22:19.195Z,15.10
2023-03-16T16:27:22.029Z,15.09
2023-03-16T16:32:25.935Z,14.78
2023-03-16T16:37:28.751Z,14.80
2023-03-16T16:42:31.648Z,14.84
2023-03-16T16:47:34.361Z,14.81
2023-03-16T16:52:37.326Z,14.66
2023-03-16T16:57:40.418Z,14.53
2023-03-16T17:02:51.792Z,14.53
2023-03-16T17:07:55.003Z,14.32
2023-03-16T17:12:58.027Z,14.31
2023-03-16T17:18:13.333Z,14.29
2023-03-16T17:23:37.142Z,14.24
2023-03-16T17:28:43.339Z,14.18
2023-03-16T17:33:46.113Z,14.08
2023-03-16T17:38:48.636Z,14.01
2023-03-16T17:43:54.630Z,13.90
2023-03-16T17:48:57.645Z,13.79
2023-03-16T17:54:00.160Z,13.69
2023-03-16T17:59:14.222Z,13.59
2023-03-16T18:04:27.631Z,13.52
2023-03-16T18:09:31.503Z,13.39
2023-03-16T18:14:39.814Z,13.20
2023-03-16T18:19:43.564Z,13.16
2023-03-16T18:24:48.665Z,12.99
2023-03-16T18:29:51.045Z,12.81
2023-03-16T18:34:54.784Z,12.67
2023-03-16T18:39:57.605Z,12.46
2023-03-16T18:45:01.019Z,12.32
2023-03-16T18:50:03.608Z,12.17
2023-03-16T18:55:16.974Z,12.11
2023-03-16T19:00:26.641Z,12.10
2023-03-16T19:05:35.786Z,11.80
2023-03-16T19:10:51.253Z,11.71
2023-03-16T19:15:56.091Z,11.64
2023-03-16T19:20:58.934Z,11.69
2023-03-16T19:26:08.014Z,11.57
2023-03-16T19:31:22.561Z,11.66
2023-03-16T19:36:26.567Z,11.51
2023-03-16T19:41:34.486Z,11.36
2023-03-16T19:46:37.247Z,11.23
2023-03-16T19:51:39.675Z,11.18
2023-03-16T19:56:42.567Z,11.03
2023-03-16T20:01:46.400Z,11.00
2023-03-16T20:06:50.051Z,10.84
2023-03-16T20:11:52.587Z,11.03
2023-03-16T20:16:55.409Z,11.22
2023-03-16T20:21:58.058Z,10.99
2023-03-16T20:27:00.567Z,10.55
2023-03-16T20:32:08.249Z,10.33
2023-03-16T20:37:28.705Z,10.23
2023-03-16T20:42:34.401Z,10.15
2023-03-16T20:47:37.137Z,10.14
2023-03-16T20:52:39.755Z,10.26
2023-03-16T20:57:43.779Z,10.00
2023-03-16T21:02:47.304Z,9.84
2023-03-16T21:07:49.951Z,9.78
2023-03-16T21:12:55.877Z,9.71
2023-03-16T21:18:04.086Z,9.89
2023-03-16T21:23:16.496Z,9.89
2023-03-16T21:28:20.790Z,9.66
2023-03-16T21:33:26.187Z,9.56
2023-03-16T21:38:31.089Z,9.53
2023-03-16T21:43:33.718Z,9.64
2023-03-16T21:48:39.805Z,9.56
2023-03-16T21:53:42.790Z,9.88
2023-03-16T21:58:47.188Z,9.87
2023-03-16T22:03:55.609Z,9.82
2023-03-16T22:08:59.755Z,9.70
2023-03-16T22:14:02.231Z,9.62
2023-03-16T22:19:05.941Z,9.60
2023-03-16T22:24:16.388Z,9.56
2023-03-16T22:29:30.399Z,9.71
2023-03-16T22:34:44.417Z,10.01
2023-03-16T22:39:47.539Z,10.04
2023-03-16T22:44:49.976Z,10.06
2023-03-16T22:49:52.640Z,9.95
2023-03-16T22:54:55.832Z,9.94
2023-03-16T22:59:59.499Z,9.73
2023-03-16T23:05:02.054Z,9.68
2023-03-16T23:10:04.917Z,9.52
2023-03-16T23:15:34.518Z,9.44
2023-03-16T23:20:36.920Z,9.22
2023-03-16T23:25:39.654Z,9.23
2023-03-16T23:30:42.302Z,9.45
2023-03-16T23:35:47.067Z,9.42
2023-03-16T23:40:49.905Z,9.27
2023-03-16T23:45:52.749Z,9.17
2023-03-16T23:50:56.818Z,9.55
2023-03-16T23:55:59.970Z,9.73
